sensor_id;sensor_type;location;lat;lon;timestamp;P1;durP1;ratioP1;P2;durP2;ratioP2
17965;SDS011;9108;53.204;10.424;2023-02-20T00:00:46;10.82;;;3.60;;
17965;SDS011;9108;53.204;10.424;2023-02-20T00:03:14;10.65;;;3.80;;
17965;SDS011;9108;53.204;10.424;2023-02-20T00:05:41;11.30;;;3.75;;
17965;SDS011;9108;53.204;10.424;2023-02-20T00:08:09;9.02;;;3.30;;
17965;SDS011;9108;53.204;10.424;2023-02-20T00:10:37;9.95;;;3.45;;
17965;SDS011;9108;53.204;10.424;2023-02-20T00:13:05;10.15;;;3.38;;
17965;SDS011;9108;53.204;10.424;2023-02-20T00:15:32;9.63;;;3.58;;
17965;SDS011;9108;53.204;10.424;2023-02-20T00:17:59;9.27;;;3.60;;
17965;SDS011;9108;53.204;10.424;2023-02-20T00:20:26;11.10;;;3.25;;
17965;SDS011;9108;53.204;10.424;2023-02-20T00:22:54;9.10;;;3.50;;
17965;SDS011;9108;53.204;10.424;2023-02-20T00:25:21;8.13;;;3.20;;
17965;SDS011;9108;53.204;10.424;2023-02-20T00:27:50;10.18;;;3.45;;
17965;SDS011;9108;53.204;10.424;2023-02-20T00:30:18;10.85;;;3.97;;
17965;SDS011;9108;53.204;10.424;2023-02-20T00:32:45;8.87;;;3.53;;
17965;SDS011;9108;53.204;10.424;2023-02-20T00:35:13;9.52;;;3.90;;
17965;SDS011;9108;53.204;10.424;2023-02-20T00:37:40;9.20;;;3.67;;
17965;SDS011;9108;53.204;10.424;2023-02-20T00:40:08;8.90;;;3.97;;
17965;SDS011;9108;53.204;10.424;2023-02-20T00:42:35;11.90;;;3.60;;
17965;SDS011;9108;53.204;10.424;2023-02-20T00:45:04;9.85;;;3.90;;
17965;SDS011;9108;53.204;10.424;2023-02-20T00:47:31;10.55;;;4.25;;
17965;SDS011;9108;53.204;10.424;2023-02-20T00:49:58;8.95;;;3.95;;
17965;SDS011;9108;53.204;10.424;2023-02-20T00:52:26;8.55;;;4.05;;
17965;SDS011;9108;53.204;10.424;2023-02-20T00:54:53;9.32;;;4.18;;
17965;SDS011;9108;53.204;10.424;2023-02-20T00:57:20;9.48;;;4.32;;
17965;SDS011;9108;53.204;10.424;2023-02-20T00:59:47;13.23;;;4.45;;
17965;SDS011;9108;53.204;10.424;2023-02-20T01:02:16;10.77;;;4.20;;
17965;SDS011;9108;53.204;10.424;2023-02-20T01:04:43;10.15;;;4.20;;
17965;SDS011;9108;53.204;10.424;2023-02-20T01:07:10;11.82;;;4.63;;
17965;SDS011;9108;53.204;10.424;2023-02-20T01:09:37;10.02;;;4.45;;
17965;SDS011;9108;53.204;10.424;2023-02-20T01:12:04;9.25;;;4.28;;
17965;SDS011;9108;53.204;10.424;2023-02-20T01:14:31;12.05;;;4.40;;
17965;SDS011;9108;53.204;10.424;2023-02-20T01:16:58;8.40;;;4.20;;
17965;SDS011;9108;53.204;10.424;2023-02-20T01:19:27;9.35;;;4.38;;
17965;SDS011;9108;53.204;10.424;2023-02-20T01:21:54;11.95;;;4.60;;
17965;SDS011;9108;53.204;10.424;2023-02-20T01:24:21;9.73;;;4.60;;
17965;SDS011;9108;53.204;10.424;2023-02-20T01:26:48;9.02;;;4.18;;
17965;SDS011;9108;53.204;10.424;2023-02-20T01:29:16;10.50;;;4.50;;
17965;SDS011;9108;53.204;10.424;2023-02-20T01:31:46;8.27;;;4.03;;
17965;SDS011;9108;53.204;10.424;2023-02-20T01:34:13;10.25;;;4.03;;
17965;SDS011;9108;53.204;10.424;2023-02-20T01:36:45;9.15;;;4.00;;
17965;SDS011;9108;53.204;10.424;2023-02-20T01:39:15;9.70;;;3.90;;
17965;SDS011;9108;53.204;10.424;2023-02-20T01:41:42;11.07;;;4.20;;
17965;SDS011;9108;53.204;10.424;2023-02-20T01:44:11;9.98;;;4.10;;
17965;SDS011;9108;53.204;10.424;2023-02-20T01:46:43;9.27;;;4.00;;
17965;SDS011;9108;53.204;10.424;2023-02-20T01:49:13;9.32;;;3.75;;
17965;SDS011;9108;53.204;10.424;2023-02-20T01:51:42;9.00;;;3.92;;
17965;SDS011;9108;53.204;10.424;2023-02-20T01:54:13;8.07;;;3.95;;
17965;SDS011;9108;53.204;10.424;2023-02-20T01:56:41;9.15;;;3.92;;
17965;SDS011;9108;53.204;10.424;2023-02-20T01:59:10;9.73;;;3.80;;
17965;SDS011;9108;53.204;10.424;2023-02-20T02:01:38;10.55;;;3.85;;
17965;SDS011;9108;53.204;10.424;2023-02-20T02:04:05;9.85;;;3.70;;
17965;SDS011;9108;53.204;10.424;2023-02-20T02:06:34;8.68;;;3.70;;
17965;SDS011;9108;53.204;10.424;2023-02-20T02:09:05;8.68;;;3.55;;
17965;SDS011;9108;53.204;10.424;2023-02-20T02:11:36;8.32;;;3.60;;
17965;SDS011;9108;53.204;10.424;2023-02-20T02:14:04;7.85;;;3.45;;
17965;SDS011;9108;53.204;10.424;2023-02-20T02:16:34;8.47;;;3.90;;
17965;SDS011;9108;53.204;10.424;2023-02-20T02:19:04;7.28;;;3.65;;
17965;SDS011;9108;53.204;10.424;2023-02-20T02:21:39;7.72;;;3.72;;
17965;SDS011;9108;53.204;10.424;2023-02-20T02:24:31;7.25;;;3.97;;
17965;SDS011;9108;53.204;10.424;2023-02-20T02:29:54;7.15;;;3.80;;
17965;SDS011;9108;53.204;10.424;2023-02-20T02:35:17;8.38;;;4.10;;
17965;SDS011;9108;53.204;10.424;2023-02-20T02:37:49;8.68;;;4.00;;
17965;SDS011;9108;53.204;10.424;2023-02-20T02:40:23;8.05;;;4.00;;
17965;SDS011;9108;53.204;10.424;2023-02-20T02:42:54;9.05;;;4.05;;
17965;SDS011;9108;53.204;10.424;2023-02-20T02:45:26;10.23;;;3.90;;
17965;SDS011;9108;53.204;10.424;2023-02-20T02:47:56;8.10;;;4.13;;
17965;SDS011;9108;53.204;10.424;2023-02-20T02:50:26;8.20;;;4.05;;
17965;SDS011;9108;53.204;10.424;2023-02-20T02:52:56;8.65;;;4.18;;
17965;SDS011;9108;53.204;10.424;2023-02-20T02:55:25;9.25;;;4.55;;
17965;SDS011;9108;53.204;10.424;2023-02-20T02:57:52;9.43;;;4.20;;
17965;SDS011;9108;53.204;10.424;2023-02-20T03:00:20;8.98;;;4.22;;
17965;SDS011;9108;53.204;10.424;2023-02-20T03:02:49;8.73;;;4.50;;
17965;SDS011;9108;53.204;10.424;2023-02-20T03:05:20;8.55;;;4.50;;
17965;SDS011;9108;53.204;10.424;2023-02-20T03:07:49;10.30;;;4.70;;
17965;SDS011;9108;53.204;10.424;2023-02-20T03:10:21;7.93;;;4.32;;
17965;SDS011;9108;53.204;10.424;2023-02-20T03:12:55;9.95;;;5.05;;
17965;SDS011;9108;53.204;10.424;2023-02-20T03:15:25;10.98;;;5.20;;
17965;SDS011;9108;53.204;10.424;2023-02-20T03:18:03;9.95;;;5.22;;
17965;SDS011;9108;53.204;10.424;2023-02-20T03:20:35;14.23;;;5.00;;
17965;SDS011;9108;53.204;10.424;2023-02-20T03:23:03;11.27;;;5.43;;
17965;SDS011;9108;53.204;10.424;2023-02-20T03:25:34;11.90;;;5.57;;
17965;SDS011;9108;53.204;10.424;2023-02-20T03:28:04;11.32;;;6.00;;
17965;SDS011;9108;53.204;10.424;2023-02-20T03:30:34;12.07;;;5.40;;
17965;SDS011;9108;53.204;10.424;2023-02-20T03:33:03;12.15;;;5.85;;
17965;SDS011;9108;53.204;10.424;2023-02-20T03:35:51;12.50;;;6.07;;
17965;SDS011;9108;53.204;10.424;2023-02-20T03:38:37;12.20;;;6.40;;
17965;SDS011;9108;53.204;10.424;2023-02-20T03:41:32;14.30;;;6.47;;
17965;SDS011;9108;53.204;10.424;2023-02-20T03:44:17;11.65;;;6.70;;
17965;SDS011;9108;53.204;10.424;2023-02-20T03:46:48;14.02;;;6.88;;
17965;SDS011;9108;53.204;10.424;2023-02-20T03:49:26;15.18;;;6.55;;
17965;SDS011;9108;53.204;10.424;2023-02-20T03:51:53;13.57;;;6.88;;
17965;SDS011;9108;53.204;10.424;2023-02-20T03:54:21;14.80;;;6.93;;
17965;SDS011;9108;53.204;10.424;2023-02-20T03:56:50;12.30;;;6.75;;
17965;SDS011;9108;53.204;10.424;2023-02-20T03:59:20;15.32;;;7.15;;
17965;SDS011;9108;53.204;10.424;2023-02-20T04:01:49;12.73;;;6.82;;
17965;SDS011;9108;53.204;10.424;2023-02-20T04:04:19;13.60;;;7.10;;
17965;SDS011;9108;53.204;10.424;2023-02-20T04:06:49;14.45;;;7.32;;
17965;SDS011;9108;53.204;10.424;2023-02-20T04:09:18;14.75;;;7.18;;
17965;SDS011;9108;53.204;10.424;2023-02-20T04:11:47;14.25;;;7.30;;
17965;SDS011;9108;53.204;10.424;2023-02-20T04:14:17;14.65;;;7.35;;
17965;SDS011;9108;53.204;10.424;2023-02-20T04:16:46;13.63;;;7.00;;
17965;SDS011;9108;53.204;10.424;2023-02-20T04:19:14;12.60;;;6.90;;
17965;SDS011;9108;53.204;10.424;2023-02-20T04:21:42;16.08;;;7.22;;
17965;SDS011;9108;53.204;10.424;2023-02-20T04:24:11;12.80;;;7.15;;
17965;SDS011;9108;53.204;10.424;2023-02-20T04:26:39;14.97;;;7.10;;
17965;SDS011;9108;53.204;10.424;2023-02-20T04:29:06;14.23;;;6.95;;
17965;SDS011;9108;53.204;10.424;2023-02-20T04:31:34;13.38;;;7.28;;
17965;SDS011;9108;53.204;10.424;2023-02-20T04:34:01;15.60;;;7.50;;
17965;SDS011;9108;53.204;10.424;2023-02-20T04:36:29;15.38;;;7.53;;
17965;SDS011;9108;53.204;10.424;2023-02-20T04:38:56;15.23;;;7.25;;
17965;SDS011;9108;53.204;10.424;2023-02-20T04:41:23;13.80;;;7.57;;
17965;SDS011;9108;53.204;10.424;2023-02-20T04:43:50;15.30;;;7.97;;
17965;SDS011;9108;53.204;10.424;2023-02-20T04:46:39;14.80;;;7.90;;
17965;SDS011;9108;53.204;10.424;2023-02-20T04:49:06;16.70;;;7.70;;
17965;SDS011;9108;53.204;10.424;2023-02-20T04:51:33;17.25;;;8.50;;
17965;SDS011;9108;53.204;10.424;2023-02-20T04:54:01;14.95;;;8.43;;
17965;SDS011;9108;53.204;10.424;2023-02-20T04:56:28;17.10;;;8.38;;
17965;SDS011;9108;53.204;10.424;2023-02-20T04:58:55;16.52;;;8.70;;
17965;SDS011;9108;53.204;10.424;2023-02-20T05:01:22;18.40;;;8.77;;
17965;SDS011;9108;53.204;10.424;2023-02-20T05:03:50;17.90;;;8.90;;
17965;SDS011;9108;53.204;10.424;2023-02-20T05:06:18;18.52;;;9.07;;
17965;SDS011;9108;53.204;10.424;2023-02-20T05:08:45;20.00;;;9.50;;
17965;SDS011;9108;53.204;10.424;2023-02-20T05:11:12;20.80;;;9.88;;
17965;SDS011;9108;53.204;10.424;2023-02-20T05:13:39;19.20;;;9.88;;
17965;SDS011;9108;53.204;10.424;2023-02-20T05:16:06;18.70;;;9.70;;
17965;SDS011;9108;53.204;10.424;2023-02-20T05:18:34;19.90;;;9.52;;
17965;SDS011;9108;53.204;10.424;2023-02-20T05:21:02;19.90;;;10.25;;
17965;SDS011;9108;53.204;10.424;2023-02-20T05:23:47;21.00;;;10.63;;
17965;SDS011;9108;53.204;10.424;2023-02-20T05:26:16;18.85;;;9.60;;
17965;SDS011;9108;53.204;10.424;2023-02-20T05:28:43;24.13;;;10.87;;
17965;SDS011;9108;53.204;10.424;2023-02-20T05:31:11;21.48;;;10.20;;
17965;SDS011;9108;53.204;10.424;2023-02-20T05:33:38;22.52;;;10.60;;
17965;SDS011;9108;53.204;10.424;2023-02-20T05:36:07;23.58;;;10.70;;
17965;SDS011;9108;53.204;10.424;2023-02-20T05:38:34;23.10;;;10.75;;
17965;SDS011;9108;53.204;10.424;2023-02-20T05:41:01;24.38;;;11.27;;
17965;SDS011;9108;53.204;10.424;2023-02-20T05:43:28;25.25;;;11.60;;
17965;SDS011;9108;53.204;10.424;2023-02-20T05:45:55;22.67;;;10.77;;
17965;SDS011;9108;53.204;10.424;2023-02-20T05:48:22;25.30;;;11.82;;
17965;SDS011;9108;53.204;10.424;2023-02-20T05:50:50;23.27;;;11.35;;
17965;SDS011;9108;53.204;10.424;2023-02-20T05:53:20;26.42;;;11.38;;
17965;SDS011;9108;53.204;10.424;2023-02-20T05:55:48;24.50;;;11.63;;
17965;SDS011;9108;53.204;10.424;2023-02-20T05:58:15;26.52;;;12.15;;
17965;SDS011;9108;53.204;10.424;2023-02-20T06:00:42;25.60;;;11.40;;
17965;SDS011;9108;53.204;10.424;2023-02-20T06:03:09;24.80;;;11.18;;
17965;SDS011;9108;53.204;10.424;2023-02-20T06:05:40;24.90;;;11.52;;
17965;SDS011;9108;53.204;10.424;2023-02-20T06:08:07;27.08;;;12.32;;
17965;SDS011;9108;53.204;10.424;2023-02-20T06:10:36;25.73;;;12.23;;
17965;SDS011;9108;53.204;10.424;2023-02-20T06:13:03;24.90;;;11.63;;
17965;SDS011;9108;53.204;10.424;2023-02-20T06:15:30;27.00;;;12.35;;
17965;SDS011;9108;53.204;10.424;2023-02-20T06:17:57;24.27;;;12.13;;
17965;SDS011;9108;53.204;10.424;2023-02-20T06:20:24;24.75;;;11.70;;
17965;SDS011;9108;53.204;10.424;2023-02-20T06:22:51;26.00;;;11.95;;
17965;SDS011;9108;53.204;10.424;2023-02-20T06:25:18;26.88;;;12.02;;
17965;SDS011;9108;53.204;10.424;2023-02-20T06:27:47;26.23;;;11.90;;
17965;SDS011;9108;53.204;10.424;2023-02-20T06:30:14;27.45;;;12.23;;
17965;SDS011;9108;53.204;10.424;2023-02-20T06:32:41;28.88;;;12.18;;
17965;SDS011;9108;53.204;10.424;2023-02-20T06:35:08;25.25;;;11.35;;
17965;SDS011;9108;53.204;10.424;2023-02-20T06:37:35;27.17;;;12.40;;
17965;SDS011;9108;53.204;10.424;2023-02-20T06:40:03;26.17;;;12.15;;
17965;SDS011;9108;53.204;10.424;2023-02-20T06:42:30;25.20;;;12.00;;
17965;SDS011;9108;53.204;10.424;2023-02-20T06:44:59;26.35;;;11.95;;
17965;SDS011;9108;53.204;10.424;2023-02-20T06:47:26;26.08;;;11.48;;
17965;SDS011;9108;53.204;10.424;2023-02-20T06:49:53;24.95;;;12.00;;
17965;SDS011;9108;53.204;10.424;2023-02-20T06:52:20;25.10;;;11.43;;
17965;SDS011;9108;53.204;10.424;2023-02-20T06:54:48;28.58;;;11.60;;
17965;SDS011;9108;53.204;10.424;2023-02-20T06:57:17;24.63;;;12.07;;
17965;SDS011;9108;53.204;10.424;2023-02-20T06:59:44;25.63;;;11.30;;
17965;SDS011;9108;53.204;10.424;2023-02-20T07:02:15;27.58;;;11.68;;
17965;SDS011;9108;53.204;10.424;2023-02-20T07:04:46;26.98;;;11.93;;
17965;SDS011;9108;53.204;10.424;2023-02-20T07:07:13;26.70;;;12.00;;
17965;SDS011;9108;53.204;10.424;2023-02-20T07:09:40;26.77;;;12.55;;
17965;SDS011;9108;53.204;10.424;2023-02-20T07:12:07;28.35;;;11.93;;
17965;SDS011;9108;53.204;10.424;2023-02-20T07:14:34;25.77;;;11.65;;
17965;SDS011;9108;53.204;10.424;2023-02-20T07:17:01;23.83;;;11.40;;
17965;SDS011;9108;53.204;10.424;2023-02-20T07:19:30;26.65;;;12.02;;
17965;SDS011;9108;53.204;10.424;2023-02-20T07:21:57;27.95;;;11.75;;
17965;SDS011;9108;53.204;10.424;2023-02-20T07:24:24;26.13;;;12.00;;
17965;SDS011;9108;53.204;10.424;2023-02-20T07:26:52;25.20;;;11.85;;
17965;SDS011;9108;53.204;10.424;2023-02-20T07:29:19;25.98;;;11.52;;
17965;SDS011;9108;53.204;10.424;2023-02-20T07:31:46;24.60;;;12.13;;
17965;SDS011;9108;53.204;10.424;2023-02-20T07:34:13;26.15;;;12.27;;
17965;SDS011;9108;53.204;10.424;2023-02-20T07:36:42;26.63;;;12.52;;
17965;SDS011;9108;53.204;10.424;2023-02-20T07:39:09;28.17;;;12.70;;
17965;SDS011;9108;53.204;10.424;2023-02-20T07:41:38;25.73;;;12.75;;
17965;SDS011;9108;53.204;10.424;2023-02-20T07:44:05;25.95;;;12.80;;
17965;SDS011;9108;53.204;10.424;2023-02-20T07:46:36;28.13;;;12.68;;
17965;SDS011;9108;53.204;10.424;2023-02-20T07:49:04;27.92;;;13.30;;
17965;SDS011;9108;53.204;10.424;2023-02-20T07:51:31;26.02;;;13.18;;
17965;SDS011;9108;53.204;10.424;2023-02-20T07:57:03;30.02;;;14.00;;
17965;SDS011;9108;53.204;10.424;2023-02-20T07:59:31;26.73;;;13.32;;
17965;SDS011;9108;53.204;10.424;2023-02-20T08:01:58;27.92;;;13.07;;
17965;SDS011;9108;53.204;10.424;2023-02-20T08:04:25;28.10;;;13.63;;
17965;SDS011;9108;53.204;10.424;2023-02-20T08:06:52;29.80;;;14.55;;
17965;SDS011;9108;53.204;10.424;2023-02-20T08:09:19;30.30;;;14.75;;
17965;SDS011;9108;53.204;10.424;2023-02-20T08:11:46;30.58;;;14.65;;
17965;SDS011;9108;53.204;10.424;2023-02-20T08:14:15;29.80;;;14.77;;
17965;SDS011;9108;53.204;10.424;2023-02-20T08:16:42;31.45;;;14.82;;
17965;SDS011;9108;53.204;10.424;2023-02-20T08:19:09;31.35;;;15.40;;
17965;SDS011;9108;53.204;10.424;2023-02-20T08:21:36;34.15;;;16.05;;
17965;SDS011;9108;53.204;10.424;2023-02-20T08:24:03;39.67;;;17.02;;
17965;SDS011;9108;53.204;10.424;2023-02-20T08:26:31;36.30;;;17.37;;
17965;SDS011;9108;53.204;10.424;2023-02-20T08:28:58;38.95;;;18.10;;
17965;SDS011;9108;53.204;10.424;2023-02-20T08:31:27;36.95;;;17.75;;
17965;SDS011;9108;53.204;10.424;2023-02-20T08:33:54;37.92;;;18.25;;
17965;SDS011;9108;53.204;10.424;2023-02-20T08:36:21;35.13;;;17.98;;
17965;SDS011;9108;53.204;10.424;2023-02-20T08:38:48;39.53;;;18.85;;
17965;SDS011;9108;53.204;10.424;2023-02-20T08:41:16;38.15;;;18.63;;
17965;SDS011;9108;53.204;10.424;2023-02-20T08:43:43;37.00;;;19.00;;
17965;SDS011;9108;53.204;10.424;2023-02-20T08:46:10;42.40;;;20.38;;
17965;SDS011;9108;53.204;10.424;2023-02-20T08:48:39;41.90;;;20.35;;
17965;SDS011;9108;53.204;10.424;2023-02-20T08:51:06;40.00;;;20.23;;
17965;SDS011;9108;53.204;10.424;2023-02-20T08:53:33;41.58;;;20.45;;
17965;SDS011;9108;53.204;10.424;2023-02-20T08:56:01;43.95;;;21.55;;
17965;SDS011;9108;53.204;10.424;2023-02-20T08:58:28;44.47;;;22.27;;
17965;SDS011;9108;53.204;10.424;2023-02-20T09:00:55;47.25;;;22.15;;
17965;SDS011;9108;53.204;10.424;2023-02-20T09:03:22;44.60;;;21.90;;
17965;SDS011;9108;53.204;10.424;2023-02-20T09:05:52;47.13;;;22.67;;
17965;SDS011;9108;53.204;10.424;2023-02-20T09:08:19;46.47;;;22.88;;
17965;SDS011;9108;53.204;10.424;2023-02-20T09:10:46;48.35;;;23.60;;
17965;SDS011;9108;53.204;10.424;2023-02-20T09:13:14;48.47;;;23.33;;
17965;SDS011;9108;53.204;10.424;2023-02-20T09:15:41;51.65;;;23.40;;
17965;SDS011;9108;53.204;10.424;2023-02-20T09:18:10;51.00;;;24.65;;
17965;SDS011;9108;53.204;10.424;2023-02-20T09:20:37;52.10;;;25.73;;
17965;SDS011;9108;53.204;10.424;2023-02-20T09:23:06;52.20;;;26.13;;
17965;SDS011;9108;53.204;10.424;2023-02-20T09:25:33;52.92;;;25.67;;
17965;SDS011;9108;53.204;10.424;2023-02-20T09:28:00;55.85;;;26.90;;
17965;SDS011;9108;53.204;10.424;2023-02-20T09:30:28;56.97;;;27.52;;
17965;SDS011;9108;53.204;10.424;2023-02-20T09:32:55;53.25;;;26.27;;
17965;SDS011;9108;53.204;10.424;2023-02-20T09:35:22;58.00;;;27.42;;
17965;SDS011;9108;53.204;10.424;2023-02-20T09:37:50;56.63;;;27.42;;
17965;SDS011;9108;53.204;10.424;2023-02-20T09:40:21;61.03;;;28.25;;
17965;SDS011;9108;53.204;10.424;2023-02-20T09:42:53;58.97;;;28.45;;
17965;SDS011;9108;53.204;10.424;2023-02-20T09:45:24;61.90;;;28.98;;
17965;SDS011;9108;53.204;10.424;2023-02-20T09:47:56;63.25;;;28.85;;
17965;SDS011;9108;53.204;10.424;2023-02-20T09:50:29;65.38;;;29.98;;
17965;SDS011;9108;53.204;10.424;2023-02-20T09:53:00;65.75;;;30.00;;
17965;SDS011;9108;53.204;10.424;2023-02-20T09:55:32;62.58;;;29.58;;
17965;SDS011;9108;53.204;10.424;2023-02-20T09:57:59;65.82;;;30.23;;
17965;SDS011;9108;53.204;10.424;2023-02-20T10:00:27;68.05;;;30.52;;
17965;SDS011;9108;53.204;10.424;2023-02-20T10:02:59;64.72;;;30.02;;
17965;SDS011;9108;53.204;10.424;2023-02-20T10:05:30;66.47;;;30.98;;
17965;SDS011;9108;53.204;10.424;2023-02-20T10:07:57;67.30;;;31.05;;
17965;SDS011;9108;53.204;10.424;2023-02-20T10:10:25;69.78;;;31.00;;
17965;SDS011;9108;53.204;10.424;2023-02-20T10:12:58;75.90;;;32.50;;
17965;SDS011;9108;53.204;10.424;2023-02-20T10:15:30;72.05;;;32.03;;
17965;SDS011;9108;53.204;10.424;2023-02-20T10:18:02;71.15;;;33.03;;
17965;SDS011;9108;53.204;10.424;2023-02-20T10:20:33;72.88;;;31.80;;
17965;SDS011;9108;53.204;10.424;2023-02-20T10:23:02;75.40;;;32.38;;
17965;SDS011;9108;53.204;10.424;2023-02-20T10:25:34;70.35;;;32.40;;
17965;SDS011;9108;53.204;10.424;2023-02-20T10:28:03;78.25;;;32.72;;
17965;SDS011;9108;53.204;10.424;2023-02-20T10:30:32;75.93;;;32.37;;
17965;SDS011;9108;53.204;10.424;2023-02-20T10:33:02;76.00;;;31.90;;
17965;SDS011;9108;53.204;10.424;2023-02-20T10:35:31;72.03;;;32.45;;
17965;SDS011;9108;53.204;10.424;2023-02-20T10:38:00;73.22;;;31.85;;
17965;SDS011;9108;53.204;10.424;2023-02-20T10:40:30;74.35;;;31.13;;
17965;SDS011;9108;53.204;10.424;2023-02-20T10:43:00;70.57;;;31.48;;
17965;SDS011;9108;53.204;10.424;2023-02-20T10:45:32;70.88;;;30.67;;
17965;SDS011;9108;53.204;10.424;2023-02-20T10:48:02;69.65;;;30.60;;
17965;SDS011;9108;53.204;10.424;2023-02-20T10:50:31;73.43;;;31.13;;
17965;SDS011;9108;53.204;10.424;2023-02-20T10:53:02;69.07;;;30.63;;
17965;SDS011;9108;53.204;10.424;2023-02-20T10:55:32;71.95;;;30.63;;
17965;SDS011;9108;53.204;10.424;2023-02-20T10:58:01;74.43;;;31.27;;
17965;SDS011;9108;53.204;10.424;2023-02-20T11:00:31;72.53;;;31.70;;
17965;SDS011;9108;53.204;10.424;2023-02-20T11:03:01;72.30;;;30.75;;
17965;SDS011;9108;53.204;10.424;2023-02-20T11:05:30;73.70;;;31.73;;
17965;SDS011;9108;53.204;10.424;2023-02-20T11:07:58;71.63;;;30.30;;
17965;SDS011;9108;53.204;10.424;2023-02-20T11:10:25;71.10;;;30.50;;
17965;SDS011;9108;53.204;10.424;2023-02-20T11:12:55;76.82;;;30.02;;
17965;SDS011;9108;53.204;10.424;2023-02-20T11:15:25;66.70;;;28.67;;
17965;SDS011;9108;53.204;10.424;2023-02-20T11:17:55;70.55;;;29.80;;
17965;SDS011;9108;53.204;10.424;2023-02-20T11:20:38;70.38;;;29.70;;
17965;SDS011;9108;53.204;10.424;2023-02-20T11:23:06;70.90;;;29.27;;
17965;SDS011;9108;53.204;10.424;2023-02-20T11:25:35;70.70;;;29.42;;
17965;SDS011;9108;53.204;10.424;2023-02-20T11:28:06;69.88;;;29.02;;
17965;SDS011;9108;53.204;10.424;2023-02-20T11:30:35;69.78;;;28.75;;
17965;SDS011;9108;53.204;10.424;2023-02-20T11:33:05;66.88;;;28.75;;
17965;SDS011;9108;53.204;10.424;2023-02-20T11:35:37;64.50;;;27.65;;
17965;SDS011;9108;53.204;10.424;2023-02-20T11:38:18;65.63;;;27.13;;
17965;SDS011;9108;53.204;10.424;2023-02-20T11:40:58;72.45;;;27.65;;
17965;SDS011;9108;53.204;10.424;2023-02-20T11:43:27;64.70;;;27.77;;
17965;SDS011;9108;53.204;10.424;2023-02-20T11:46:00;60.38;;;26.92;;
17965;SDS011;9108;53.204;10.424;2023-02-20T11:48:34;60.40;;;26.33;;
17965;SDS011;9108;53.204;10.424;2023-02-20T11:51:01;57.73;;;25.73;;
17965;SDS011;9108;53.204;10.424;2023-02-20T11:53:29;61.67;;;25.07;;
17965;SDS011;9108;53.204;10.424;2023-02-20T11:56:06;61.90;;;24.27;;
17965;SDS011;9108;53.204;10.424;2023-02-20T11:58:33;52.33;;;23.05;;
17965;SDS011;9108;53.204;10.424;2023-02-20T12:01:00;52.75;;;24.08;;
17965;SDS011;9108;53.204;10.424;2023-02-20T12:03:28;54.75;;;23.27;;
17965;SDS011;9108;53.204;10.424;2023-02-20T12:05:58;50.03;;;22.50;;
17965;SDS011;9108;53.204;10.424;2023-02-20T12:08:32;50.20;;;22.77;;
17965;SDS011;9108;53.204;10.424;2023-02-20T12:11:00;48.03;;;21.83;;
17965;SDS011;9108;53.204;10.424;2023-02-20T12:13:29;45.67;;;21.08;;
17965;SDS011;9108;53.204;10.424;2023-02-20T12:16:03;50.80;;;21.27;;
17965;SDS011;9108;53.204;10.424;2023-02-20T12:18:35;47.83;;;20.40;;
17965;SDS011;9108;53.204;10.424;2023-02-20T12:21:14;43.90;;;19.93;;
17965;SDS011;9108;53.204;10.424;2023-02-20T12:23:47;41.15;;;19.70;;
17965;SDS011;9108;53.204;10.424;2023-02-20T12:26:20;46.20;;;19.00;;
17965;SDS011;9108;53.204;10.424;2023-02-20T12:28:52;39.08;;;18.40;;
17965;SDS011;9108;53.204;10.424;2023-02-20T12:31:21;37.42;;;17.02;;
17965;SDS011;9108;53.204;10.424;2023-02-20T12:34:04;36.40;;;16.23;;
17965;SDS011;9108;53.204;10.424;2023-02-20T12:36:36;32.63;;;15.02;;
17965;SDS011;9108;53.204;10.424;2023-02-20T12:39:05;31.60;;;15.32;;
17965;SDS011;9108;53.204;10.424;2023-02-20T12:41:37;31.45;;;14.75;;
17965;SDS011;9108;53.204;10.424;2023-02-20T12:47:15;30.58;;;14.13;;
17965;SDS011;9108;53.204;10.424;2023-02-20T12:49:50;25.83;;;12.88;;
17965;SDS011;9108;53.204;10.424;2023-02-20T12:52:29;28.03;;;12.40;;
17965;SDS011;9108;53.204;10.424;2023-02-20T12:54:59;25.02;;;10.93;;
17965;SDS011;9108;53.204;10.424;2023-02-20T12:57:40;27.85;;;10.93;;
17965;SDS011;9108;53.204;10.424;2023-02-20T13:00:13;24.88;;;10.88;;
17965;SDS011;9108;53.204;10.424;2023-02-20T13:02:42;24.13;;;10.45;;
17965;SDS011;9108;53.204;10.424;2023-02-20T13:05:11;22.67;;;10.05;;
17965;SDS011;9108;53.204;10.424;2023-02-20T13:07:42;21.40;;;9.40;;
17965;SDS011;9108;53.204;10.424;2023-02-20T13:10:12;24.77;;;9.88;;
17965;SDS011;9108;53.204;10.424;2023-02-20T13:12:41;21.88;;;10.30;;
17965;SDS011;9108;53.204;10.424;2023-02-20T13:15:18;23.42;;;10.45;;
17965;SDS011;9108;53.204;10.424;2023-02-20T13:17:49;23.07;;;10.00;;
17965;SDS011;9108;53.204;10.424;2023-02-20T13:20:19;26.20;;;10.32;;
17965;SDS011;9108;53.204;10.424;2023-02-20T13:23:03;23.33;;;10.23;;
17965;SDS011;9108;53.204;10.424;2023-02-20T13:25:34;21.80;;;9.63;;
17965;SDS011;9108;53.204;10.424;2023-02-20T13:28:06;22.35;;;9.40;;
17965;SDS011;9108;53.204;10.424;2023-02-20T13:30:49;22.60;;;9.20;;
17965;SDS011;9108;53.204;10.424;2023-02-20T13:33:34;21.65;;;9.23;;
17965;SDS011;9108;53.204;10.424;2023-02-20T13:36:02;20.58;;;8.77;;
17965;SDS011;9108;53.204;10.424;2023-02-20T13:38:31;25.50;;;9.27;;
17965;SDS011;9108;53.204;10.424;2023-02-20T13:41:01;25.48;;;9.15;;
17965;SDS011;9108;53.204;10.424;2023-02-20T13:43:30;22.25;;;8.90;;
17965;SDS011;9108;53.204;10.424;2023-02-20T13:46:07;20.33;;;9.27;;
17965;SDS011;9108;53.204;10.424;2023-02-20T13:48:40;21.90;;;9.48;;
17965;SDS011;9108;53.204;10.424;2023-02-20T14:00:18;21.05;;;9.90;;
17965;SDS011;9108;53.204;10.424;2023-02-20T14:03:09;23.23;;;9.68;;
17965;SDS011;9108;53.204;10.424;2023-02-20T14:05:36;19.95;;;8.90;;
17965;SDS011;9108;53.204;10.424;2023-02-20T14:11:03;22.87;;;10.50;;
17965;SDS011;9108;53.204;10.424;2023-02-20T14:13:30;21.38;;;10.60;;
17965;SDS011;9108;53.204;10.424;2023-02-20T14:15:58;25.10;;;11.13;;
17965;SDS011;9108;53.204;10.424;2023-02-20T14:18:27;25.73;;;12.82;;
17965;SDS011;9108;53.204;10.424;2023-02-20T14:20:56;28.23;;;13.20;;
17965;SDS011;9108;53.204;10.424;2023-02-20T14:24:56;21.17;;;10.55;;
17965;SDS011;9108;53.204;10.424;2023-02-20T14:26:50;25.67;;;12.82;;
17965;SDS011;9108;53.204;10.424;2023-02-20T14:29:21;20.88;;;10.02;;
17965;SDS011;9108;53.204;10.424;2023-02-20T14:31:51;21.60;;;9.55;;
17965;SDS011;9108;53.204;10.424;2023-02-20T14:34:20;19.33;;;9.27;;
17965;SDS011;9108;53.204;10.424;2023-02-20T14:36:50;22.48;;;9.82;;
17965;SDS011;9108;53.204;10.424;2023-02-20T14:39:27;19.35;;;8.98;;
17965;SDS011;9108;53.204;10.424;2023-02-20T14:41:57;17.83;;;8.88;;
17965;SDS011;9108;53.204;10.424;2023-02-20T14:44:24;22.83;;;11.23;;
17965;SDS011;9108;53.204;10.424;2023-02-20T14:46:54;17.30;;;8.93;;
17965;SDS011;9108;53.204;10.424;2023-02-20T14:49:22;23.80;;;12.80;;
17965;SDS011;9108;53.204;10.424;2023-02-20T14:51:50;17.52;;;8.80;;
17965;SDS011;9108;53.204;10.424;2023-02-20T14:54:18;34.10;;;19.52;;
17965;SDS011;9108;53.204;10.424;2023-02-20T14:56:46;26.50;;;15.18;;
17965;SDS011;9108;53.204;10.424;2023-02-20T14:59:24;17.48;;;8.15;;
17965;SDS011;9108;53.204;10.424;2023-02-20T15:01:51;17.85;;;9.32;;
17965;SDS011;9108;53.204;10.424;2023-02-20T15:04:20;17.17;;;8.20;;
17965;SDS011;9108;53.204;10.424;2023-02-20T15:06:48;20.60;;;9.20;;